sensor_id;sensor_type;location;lat;lon;timestamp;temperature;humidity
11569;DHT22;5840;46.894;15.542;2024-03-02T00:05:25;7.70;99.90
11569;DHT22;5840;46.894;15.542;2024-03-02T00:07:53;7.70;99.90
11569;DHT22;5840;46.894;15.542;2024-03-02T00:10:22;7.60;99.90
11569;DHT22;5840;46.894;15.542;2024-03-02T00:12:51;7.60;99.90
11569;DHT22;5840;46.894;15.542;2024-03-02T00:15:39;7.60;99.90
11569;DHT22;5840;46.894;15.542;2024-03-02T00:18:06;7.60;99.90
11569;DHT22;5840;46.894;15.542;2024-03-02T00:20:33;7.60;99.90
11569;DHT22;5840;46.894;15.542;2024-03-02T00:23:02;7.50;99.90
11569;DHT22;5840;46.894;15.542;2024-03-02T00:33:27;7.60;99.90
11569;DHT22;5840;46.894;15.542;2024-03-02T00:35:54;7.60;99.90
11569;DHT22;5840;46.894;15.542;2024-03-02T00:38:20;7.60;99.90
11569;DHT22;5840;46.894;15.542;2024-03-02T00:40:47;7.60;99.90
11569;DHT22;5840;46.894;15.542;2024-03-02T00:46:15;7.60;99.90
11569;DHT22;5840;46.894;15.542;2024-03-02T00:56:10;7.60;99.90
11569;DHT22;5840;46.894;15.542;2024-03-02T00:58:37;7.60;99.90
11569;DHT22;5840;46.894;15.542;2024-03-02T01:01:04;7.60;99.90
11569;DHT22;5840;46.894;15.542;2024-03-02T01:03:31;7.60;99.90
11569;DHT22;5840;46.894;15.542;2024-03-02T01:05:58;7.60;99.90
11569;DHT22;5840;46.894;15.542;2024-03-02T01:08:24;7.60;99.90
11569;DHT22;5840;46.894;15.542;2024-03-02T01:10:51;7.60;99.90
11569;DHT22;5840;46.894;15.542;2024-03-02T01:13:18;7.60;99.90
11569;DHT22;5840;46.894;15.542;2024-03-02T01:20:48;7.60;99.90
11569;DHT22;5840;46.894;15.542;2024-03-02T01:23:17;7.50;99.90
11569;DHT22;5840;46.894;15.542;2024-03-02T01:25:43;7.50;99.90
11569;DHT22;5840;46.894;15.542;2024-03-02T01:28:10;7.50;99.90
11569;DHT22;5840;46.894;15.542;2024-03-02T01:30:36;7.50;99.90
11569;DHT22;5840;46.894;15.542;2024-03-02T01:33:02;7.50;99.90
11569;DHT22;5840;46.894;15.542;2024-03-02T01:35:30;7.50;99.90
11569;DHT22;5840;46.894;15.542;2024-03-02T01:37:57;7.50;99.90
11569;DHT22;5840;46.894;15.542;2024-03-02T01:45:27;7.50;99.90
11569;DHT22;5840;46.894;15.542;2024-03-02T01:47:53;7.50;99.90
11569;DHT22;5840;46.894;15.542;2024-03-02T01:50:27;7.50;99.90
11569;DHT22;5840;46.894;15.542;2024-03-02T01:52:54;7.40;99.90
11569;DHT22;5840;46.894;15.542;2024-03-02T01:55:21;7.40;99.90
11569;DHT22;5840;46.894;15.542;2024-03-02T01:57:48;7.40;99.90
11569;DHT22;5840;46.894;15.542;2024-03-02T02:00:15;7.40;99.90
11569;DHT22;5840;46.894;15.542;2024-03-02T02:02:42;7.40;99.90
11569;DHT22;5840;46.894;15.542;2024-03-02T02:10:13;7.40;99.90
11569;DHT22;5840;46.894;15.542;2024-03-02T02:12:39;7.30;99.90
11569;DHT22;5840;46.894;15.542;2024-03-02T02:15:21;7.40;99.90
11569;DHT22;5840;46.894;15.542;2024-03-02T02:17:47;7.30;99.90
11569;DHT22;5840;46.894;15.542;2024-03-02T02:22:55;7.40;99.90
11569;DHT22;5840;46.894;15.542;2024-03-02T02:25:21;7.40;99.90
11569;DHT22;5840;46.894;15.542;2024-03-02T02:27:48;7.30;99.90
11569;DHT22;5840;46.894;15.542;2024-03-02T02:35:32;7.30;99.90
11569;DHT22;5840;46.894;15.542;2024-03-02T02:37:58;7.30;99.90
11569;DHT22;5840;46.894;15.542;2024-03-02T02:40:24;7.30;99.90
11569;DHT22;5840;46.894;15.542;2024-03-02T02:42:51;7.30;99.90
11569;DHT22;5840;46.894;15.542;2024-03-02T02:45:17;7.30;99.90
11569;DHT22;5840;46.894;15.542;2024-03-02T02:47:44;7.20;99.90
11569;DHT22;5840;46.894;15.542;2024-03-02T02:50:11;7.20;99.90
11569;DHT22;5840;46.894;15.542;2024-03-02T02:52:39;7.30;99.90
11569;DHT22;5840;46.894;15.542;2024-03-02T03:02:35;7.30;99.90
11569;DHT22;5840;46.894;15.542;2024-03-02T03:05:01;7.30;99.90
11569;DHT22;5840;46.894;15.542;2024-03-02T03:07:27;7.30;99.90
11569;DHT22;5840;46.894;15.542;2024-03-02T03:09:53;7.30;99.90
11569;DHT22;5840;46.894;15.542;2024-03-02T03:12:19;7.40;99.90
11569;DHT22;5840;46.894;15.542;2024-03-02T03:14:46;7.40;99.90
11569;DHT22;5840;46.894;15.542;2024-03-02T03:17:12;7.40;99.90
11569;DHT22;5840;46.894;15.542;2024-03-02T03:19:39;7.40;99.90
11569;DHT22;5840;46.894;15.542;2024-03-02T03:29:29;7.50;99.90
11569;DHT22;5840;46.894;15.542;2024-03-02T03:31:55;7.50;99.90
11569;DHT22;5840;46.894;15.542;2024-03-02T03:34:21;7.50;99.90
11569;DHT22;5840;46.894;15.542;2024-03-02T03:36:48;7.50;99.90
11569;DHT22;5840;46.894;15.542;2024-03-02T03:39:14;7.40;99.90
11569;DHT22;5840;46.894;15.542;2024-03-02T03:41:40;7.40;99.90
11569;DHT22;5840;46.894;15.542;2024-03-02T03:44:06;7.40;99.90
11569;DHT22;5840;46.894;15.542;2024-03-02T03:46:33;7.40;99.90
11569;DHT22;5840;46.894;15.542;2024-03-02T03:54:03;7.40;99.90
11569;DHT22;5840;46.894;15.542;2024-03-02T03:56:30;7.40;99.90
11569;DHT22;5840;46.894;15.542;2024-03-02T03:58:56;7.30;99.90
11569;DHT22;5840;46.894;15.542;2024-03-02T04:01:22;7.30;99.90
11569;DHT22;5840;46.894;15.542;2024-03-02T04:03:48;7.30;99.90
11569;DHT22;5840;46.894;15.542;2024-03-02T04:06:14;7.30;99.90
11569;DHT22;5840;46.894;15.542;2024-03-02T04:08:43;7.30;99.90
11569;DHT22;5840;46.894;15.542;2024-03-02T04:11:10;7.30;99.90
11569;DHT22;5840;46.894;15.542;2024-03-02T04:18:39;7.20;99.90
11569;DHT22;5840;46.894;15.542;2024-03-02T04:21:05;7.20;99.90
11569;DHT22;5840;46.894;15.542;2024-03-02T04:23:32;7.20;99.90
11569;DHT22;5840;46.894;15.542;2024-03-02T04:25:58;7.20;99.90
11569;DHT22;5840;46.894;15.542;2024-03-02T04:28:24;7.20;99.90
11569;DHT22;5840;46.894;15.542;2024-03-02T04:30:51;7.30;99.90
11569;DHT22;5840;46.894;15.542;2024-03-02T04:33:17;7.30;99.90
11569;DHT22;5840;46.894;15.542;2024-03-02T04:35:44;7.30;99.90
11569;DHT22;5840;46.894;15.542;2024-03-02T04:45:39;7.30;99.90
11569;DHT22;5840;46.894;15.542;2024-03-02T04:48:06;7.30;99.90
11569;DHT22;5840;46.894;15.542;2024-03-02T04:50:34;7.30;99.90
11569;DHT22;5840;46.894;15.542;2024-03-02T04:53:02;7.30;99.90
11569;DHT22;5840;46.894;15.542;2024-03-02T04:55:29;7.30;99.90
11569;DHT22;5840;46.894;15.542;2024-03-02T04:58:09;7.30;99.90
11569;DHT22;5840;46.894;15.542;2024-03-02T05:00:36;7.30;99.90
11569;DHT22;5840;46.894;15.542;2024-03-02T05:03:04;7.30;99.90
11569;DHT22;5840;46.894;15.542;2024-03-02T05:10:43;7.30;99.90
11569;DHT22;5840;46.894;15.542;2024-03-02T05:13:09;7.30;99.90
11569;DHT22;5840;46.894;15.542;2024-03-02T05:15:35;7.40;99.90
11569;DHT22;5840;46.894;15.542;2024-03-02T05:18:02;7.40;99.90
11569;DHT22;5840;46.894;15.542;2024-03-02T05:20:30;7.40;99.90
11569;DHT22;5840;46.894;15.542;2024-03-02T05:22:57;7.30;99.90
11569;DHT22;5840;46.894;15.542;2024-03-02T05:25:23;7.30;99.90
11569;DHT22;5840;46.894;15.542;2024-03-02T05:27:50;7.30;99.90
11569;DHT22;5840;46.894;15.542;2024-03-02T05:35:19;7.30;99.90
11569;DHT22;5840;46.894;15.542;2024-03-02T05:37:45;7.30;99.90
11569;DHT22;5840;46.894;15.542;2024-03-02T05:40:11;7.30;99.90
11569;DHT22;5840;46.894;15.542;2024-03-02T05:42:38;7.30;99.90
11569;DHT22;5840;46.894;15.542;2024-03-02T05:45:07;7.30;99.90
11569;DHT22;5840;46.894;15.542;2024-03-02T05:47:33;7.30;99.90
11569;DHT22;5840;46.894;15.542;2024-03-02T05:49:59;7.30;99.90
11569;DHT22;5840;46.894;15.542;2024-03-02T05:52:26;7.40;99.90
11569;DHT22;5840;46.894;15.542;2024-03-02T06:02:17;7.40;99.90
11569;DHT22;5840;46.894;15.542;2024-03-02T06:04:43;7.40;99.90
11569;DHT22;5840;46.894;15.542;2024-03-02T06:07:09;7.40;99.90
11569;DHT22;5840;46.894;15.542;2024-03-02T06:09:35;7.40;99.90
11569;DHT22;5840;46.894;15.542;2024-03-02T06:12:02;7.40;99.90
11569;DHT22;5840;46.894;15.542;2024-03-02T06:14:28;7.40;99.90
11569;DHT22;5840;46.894;15.542;2024-03-02T06:16:54;7.40;99.90
11569;DHT22;5840;46.894;15.542;2024-03-02T06:19:21;7.40;99.90
11569;DHT22;5840;46.894;15.542;2024-03-02T06:26:51;7.40;99.90
11569;DHT22;5840;46.894;15.542;2024-03-02T06:29:17;7.50;99.90
11569;DHT22;5840;46.894;15.542;2024-03-02T06:31:43;7.50;99.90
11569;DHT22;5840;46.894;15.542;2024-03-02T06:34:10;7.50;99.90
11569;DHT22;5840;46.894;15.542;2024-03-02T06:36:36;7.50;99.90
11569;DHT22;5840;46.894;15.542;2024-03-02T06:39:02;7.50;99.90
11569;DHT22;5840;46.894;15.542;2024-03-02T06:41:28;7.50;99.90
11569;DHT22;5840;46.894;15.542;2024-03-02T06:43:55;7.50;99.90
11569;DHT22;5840;46.894;15.542;2024-03-02T06:53:48;7.50;99.90
11569;DHT22;5840;46.894;15.542;2024-03-02T06:56:15;7.50;99.90
11569;DHT22;5840;46.894;15.542;2024-03-02T06:58:41;7.50;99.90
11569;DHT22;5840;46.894;15.542;2024-03-02T07:01:08;7.50;99.90
11569;DHT22;5840;46.894;15.542;2024-03-02T07:03:35;7.60;99.90
11569;DHT22;5840;46.894;15.542;2024-03-02T07:06:01;7.60;99.90
11569;DHT22;5840;46.894;15.542;2024-03-02T07:08:28;7.60;99.90
11569;DHT22;5840;46.894;15.542;2024-03-02T07:10:55;7.60;99.90
11569;DHT22;5840;46.894;15.542;2024-03-02T07:18:26;7.70;99.90
11569;DHT22;5840;46.894;15.542;2024-03-02T07:20:52;7.70;99.90
11569;DHT22;5840;46.894;15.542;2024-03-02T07:23:18;7.70;99.90
11569;DHT22;5840;46.894;15.542;2024-03-02T07:25:48;7.80;99.90
11569;DHT22;5840;46.894;15.542;2024-03-02T07:28:21;7.80;99.90
11569;DHT22;5840;46.894;15.542;2024-03-02T07:30:57;7.80;99.90
11569;DHT22;5840;46.894;15.542;2024-03-02T07:33:39;7.90;99.90
11569;DHT22;5840;46.894;15.542;2024-03-02T07:38:53;7.90;99.90
11569;DHT22;5840;46.894;15.542;2024-03-02T07:41:25;8.10;99.90
11569;DHT22;5840;46.894;15.542;2024-03-02T07:44:02;8.20;99.90
11569;DHT22;5840;46.894;15.542;2024-03-02T07:46:41;8.20;99.90
11569;DHT22;5840;46.894;15.542;2024-03-02T07:49:12;8.30;99.90
11569;DHT22;5840;46.894;15.542;2024-03-02T07:51:46;8.30;99.90
11569;DHT22;5840;46.894;15.542;2024-03-02T07:54:17;8.20;99.90
11569;DHT22;5840;46.894;15.542;2024-03-02T07:59:51;8.20;99.90
11569;DHT22;5840;46.894;15.542;2024-03-02T08:05:32;8.40;99.90
11569;DHT22;5840;46.894;15.542;2024-03-02T08:07:58;8.40;99.90
11569;DHT22;5840;46.894;15.542;2024-03-02T08:10:25;8.40;99.90
11569;DHT22;5840;46.894;15.542;2024-03-02T08:12:51;8.40;99.90
11569;DHT22;5840;46.894;15.542;2024-03-02T08:15:18;8.40;99.90
11569;DHT22;5840;46.894;15.542;2024-03-02T08:17:44;8.40;99.90
11569;DHT22;5840;46.894;15.542;2024-03-02T08:22:52;8.50;99.90
11569;DHT22;5840;46.894;15.542;2024-03-02T08:25:20;8.60;99.90
11569;DHT22;5840;46.894;15.542;2024-03-02T08:27:46;8.70;99.90
11569;DHT22;5840;46.894;15.542;2024-03-02T08:30:13;8.80;99.90
11569;DHT22;5840;46.894;15.542;2024-03-02T08:32:39;8.90;99.90
11569;DHT22;5840;46.894;15.542;2024-03-02T08:35:06;9.00;99.90
11569;DHT22;5840;46.894;15.542;2024-03-02T08:37:33;9.10;99.90
11569;DHT22;5840;46.894;15.542;2024-03-02T08:40:00;9.20;99.90
11569;DHT22;5840;46.894;15.542;2024-03-02T08:49:54;9.30;99.90
11569;DHT22;5840;46.894;15.542;2024-03-02T08:52:21;9.50;99.90
11569;DHT22;5840;46.894;15.542;2024-03-02T08:54:47;9.70;99.90
11569;DHT22;5840;46.894;15.542;2024-03-02T08:57:13;9.80;99.90
11569;DHT22;5840;46.894;15.542;2024-03-02T08:59:39;10.00;99.90
11569;DHT22;5840;46.894;15.542;2024-03-02T09:02:06;10.20;99.90
11569;DHT22;5840;46.894;15.542;2024-03-02T09:04:32;10.20;99.90
11569;DHT22;5840;46.894;15.542;2024-03-02T09:06:59;10.20;99.90
11569;DHT22;5840;46.894;15.542;2024-03-02T09:14:29;10.20;99.90
11569;DHT22;5840;46.894;15.542;2024-03-02T09:16:55;10.20;99.90
11569;DHT22;5840;46.894;15.542;2024-03-02T09:19:21;10.40;99.90
11569;DHT22;5840;46.894;15.542;2024-03-02T09:21:47;10.70;99.90
11569;DHT22;5840;46.894;15.542;2024-03-02T09:24:13;10.80;99.90
11569;DHT22;5840;46.894;15.542;2024-03-02T09:26:40;10.80;99.90
11569;DHT22;5840;46.894;15.542;2024-03-02T09:29:06;11.10;99.90
11569;DHT22;5840;46.894;15.542;2024-03-02T09:39:32;12.30;99.90
11569;DHT22;5840;46.894;15.542;2024-03-02T09:41:59;12.40;99.90
11569;DHT22;5840;46.894;15.542;2024-03-02T09:44:25;12.10;99.90
11569;DHT22;5840;46.894;15.542;2024-03-02T09:46:52;11.90;99.90
11569;DHT22;5840;46.894;15.542;2024-03-02T09:49:21;11.80;99.90
11569;DHT22;5840;46.894;15.542;2024-03-02T09:51:50;11.80;99.90
11569;DHT22;5840;46.894;15.542;2024-03-02T09:54:16;11.90;99.90
11569;DHT22;5840;46.894;15.542;2024-03-02T09:56:44;11.90;99.90
11569;DHT22;5840;46.894;15.542;2024-03-02T10:04:14;12.20;99.90
11569;DHT22;5840;46.894;15.542;2024-03-02T10:06:40;13.00;99.90
11569;DHT22;5840;46.894;15.542;2024-03-02T10:09:06;13.30;99.90
11569;DHT22;5840;46.894;15.542;2024-03-02T10:11:34;13.60;99.90
11569;DHT22;5840;46.894;15.542;2024-03-02T10:14:06;14.00;99.90
11569;DHT22;5840;46.894;15.542;2024-03-02T10:16:34;14.20;99.90
11569;DHT22;5840;46.894;15.542;2024-03-02T10:19:15;14.30;99.90
11569;DHT22;5840;46.894;15.542;2024-03-02T10:21:42;14.40;99.90
11569;DHT22;5840;46.894;15.542;2024-03-02T10:29:12;14.60;99.90
11569;DHT22;5840;46.894;15.542;2024-03-02T10:31:40;15.00;99.90
11569;DHT22;5840;46.894;15.542;2024-03-02T10:34:07;15.00;99.90
11569;DHT22;5840;46.894;15.542;2024-03-02T10:36:33;15.00;99.90
11569;DHT22;5840;46.894;15.542;2024-03-02T10:39:02;15.00;99.90
11569;DHT22;5840;46.894;15.542;2024-03-02T10:41:32;15.00;99.90
11569;DHT22;5840;46.894;15.542;2024-03-02T10:43:59;15.10;99.90
11569;DHT22;5840;46.894;15.542;2024-03-02T10:46:29;15.10;99.90
11569;DHT22;5840;46.894;15.542;2024-03-02T10:54:00;15.40;99.90
11569;DHT22;5840;46.894;15.542;2024-03-02T10:56:29;15.60;99.90
11569;DHT22;5840;46.894;15.542;2024-03-02T10:59:01;15.60;99.90
11569;DHT22;5840;46.894;15.542;2024-03-02T11:01:29;15.70;99.90
11569;DHT22;5840;46.894;15.542;2024-03-02T11:03:57;15.80;99.90
11569;DHT22;5840;46.894;15.542;2024-03-02T11:06:25;15.60;99.90
11569;DHT22;5840;46.894;15.542;2024-03-02T11:08:53;15.50;99.90
11569;DHT22;5840;46.894;15.542;2024-03-02T11:11:29;15.50;99.90
11569;DHT22;5840;46.894;15.542;2024-03-02T11:18:59;15.40;99.90
11569;DHT22;5840;46.894;15.542;2024-03-02T11:21:26;15.80;99.90
11569;DHT22;5840;46.894;15.542;2024-03-02T11:23:52;15.80;99.90
11569;DHT22;5840;46.894;15.542;2024-03-02T11:26:20;15.80;99.90
11569;DHT22;5840;46.894;15.542;2024-03-02T11:28:46;15.60;99.90
11569;DHT22;5840;46.894;15.542;2024-03-02T11:31:13;15.70;99.90
11569;DHT22;5840;46.894;15.542;2024-03-02T11:33:39;15.60;99.90
11569;DHT22;5840;46.894;15.542;2024-03-02T11:36:08;15.70;99.90
11569;DHT22;5840;46.894;15.542;2024-03-02T11:43:39;15.60;99.90
11569;DHT22;5840;46.894;15.542;2024-03-02T11:46:05;15.90;99.90
11569;DHT22;5840;46.894;15.542;2024-03-02T11:48:33;15.70;99.90
11569;DHT22;5840;46.894;15.542;2024-03-02T11:51:01;15.50;99.90
11569;DHT22;5840;46.894;15.542;2024-03-02T11:53:27;15.60;99.90
11569;DHT22;5840;46.894;15.542;2024-03-02T11:55:55;15.60;99.90
11569;DHT22;5840;46.894;15.542;2024-03-02T11:58:22;15.60;99.90
11569;DHT22;5840;46.894;15.542;2024-03-02T12:00:51;15.70;99.90
11569;DHT22;5840;46.894;15.542;2024-03-02T12:08:20;16.10;99.90
11569;DHT22;5840;46.894;15.542;2024-03-02T12:10:57;16.10;99.90
11569;DHT22;5840;46.894;15.542;2024-03-02T12:13:23;16.10;99.90
11569;DHT22;5840;46.894;15.542;2024-03-02T12:15:53;16.00;99.90
11569;DHT22;5840;46.894;15.542;2024-03-02T12:18:19;16.00;99.90
11569;DHT22;5840;46.894;15.542;2024-03-02T12:20:46;16.10;99.90
11569;DHT22;5840;46.894;15.542;2024-03-02T12:23:14;15.90;99.90
11569;DHT22;5840;46.894;15.542;2024-03-02T12:25:41;16.00;99.90
11569;DHT22;5840;46.894;15.542;2024-03-02T12:33:11;16.00;99.90
11569;DHT22;5840;46.894;15.542;2024-03-02T12:35:37;16.10;99.90
11569;DHT22;5840;46.894;15.542;2024-03-02T12:38:05;16.20;99.90
11569;DHT22;5840;46.894;15.542;2024-03-02T12:40:31;16.20;99.90
11569;DHT22;5840;46.894;15.542;2024-03-02T12:42:57;16.30;99.90
11569;DHT22;5840;46.894;15.542;2024-03-02T12:45:23;16.40;99.90
11569;DHT22;5840;46.894;15.542;2024-03-02T12:47:50;16.40;99.90
11569;DHT22;5840;46.894;15.542;2024-03-02T12:50:18;16.50;99.90
11569;DHT22;5840;46.894;15.542;2024-03-02T12:57:49;16.00;99.90
11569;DHT22;5840;46.894;15.542;2024-03-02T13:03:06;16.20;99.90
11569;DHT22;5840;46.894;15.542;2024-03-02T13:05:33;16.10;99.90
11569;DHT22;5840;46.894;15.542;2024-03-02T13:08:00;16.00;99.90
11569;DHT22;5840;46.894;15.542;2024-03-02T13:10:29;15.80;99.90
11569;DHT22;5840;46.894;15.542;2024-03-02T13:12:57;15.80;99.90
11569;DHT22;5840;46.894;15.542;2024-03-02T13:15:23;15.80;99.90
11569;DHT22;5840;46.894;15.542;2024-03-02T13:23:07;16.10;99.90
11569;DHT22;5840;46.894;15.542;2024-03-02T13:25:33;16.30;99.90
11569;DHT22;5840;46.894;15.542;2024-03-02T13:27:59;16.30;99.90
11569;DHT22;5840;46.894;15.542;2024-03-02T13:30:26;16.10;99.90
11569;DHT22;5840;46.894;15.542;2024-03-02T13:32:52;15.60;99.90
11569;DHT22;5840;46.894;15.542;2024-03-02T13:35:18;15.10;99.90
11569;DHT22;5840;46.894;15.542;2024-03-02T13:37:45;14.80;99.90
11569;DHT22;5840;46.894;15.542;2024-03-02T13:40:12;14.80;99.90
11569;DHT22;5840;46.894;15.542;2024-03-02T13:47:45;14.60;99.90
11569;DHT22;5840;46.894;15.542;2024-03-02T13:50:12;13.80;99.90
11569;DHT22;5840;46.894;15.542;2024-03-02T13:52:38;13.40;99.90
11569;DHT22;5840;46.894;15.542;2024-03-02T13:55:05;13.20;99.90
11569;DHT22;5840;46.894;15.542;2024-03-02T13:57:31;13.10;99.90
11569;DHT22;5840;46.894;15.542;2024-03-02T13:59:57;13.00;99.90
11569;DHT22;5840;46.894;15.542;2024-03-02T14:02:24;12.90;99.90
11569;DHT22;5840;46.894;15.542;2024-03-02T14:04:50;12.90;99.90
11569;DHT22;5840;46.894;15.542;2024-03-02T14:12:20;12.80;99.90
11569;DHT22;5840;46.894;15.542;2024-03-02T14:14:47;13.00;99.90
11569;DHT22;5840;46.894;15.542;2024-03-02T14:17:16;13.00;99.90
11569;DHT22;5840;46.894;15.542;2024-03-02T14:19:42;13.40;99.90
11569;DHT22;5840;46.894;15.542;2024-03-02T14:22:09;13.60;99.90
11569;DHT22;5840;46.894;15.542;2024-03-02T14:24:35;14.00;99.90
11569;DHT22;5840;46.894;15.542;2024-03-02T14:27:01;14.10;99.90
11569;DHT22;5840;46.894;15.542;2024-03-02T14:29:30;13.90;99.90
11569;DHT22;5840;46.894;15.542;2024-03-02T14:36:57;13.40;99.90
11569;DHT22;5840;46.894;15.542;2024-03-02T14:39:23;13.00;99.90
11569;DHT22;5840;46.894;15.542;2024-03-02T14:41:49;12.80;99.90
11569;DHT22;5840;46.894;15.542;2024-03-02T14:44:15;12.60;99.90
11569;DHT22;5840;46.894;15.542;2024-03-02T14:46:43;12.50;99.90
11569;DHT22;5840;46.894;15.542;2024-03-02T14:49:09;12.30;99.90
11569;DHT22;5840;46.894;15.542;2024-03-02T14:51:36;12.20;99.90
11569;DHT22;5840;46.894;15.542;2024-03-02T14:54:04;12.10;99.90
11569;DHT22;5840;46.894;15.542;2024-03-02T15:01:29;12.20;99.90
11569;DHT22;5840;46.894;15.542;2024-03-02T15:03:55;12.30;99.90
11569;DHT22;5840;46.894;15.542;2024-03-02T15:06:22;12.40;99.90
11569;DHT22;5840;46.894;15.542;2024-03-02T15:08:48;12.60;99.90
11569;DHT22;5840;46.894;15.542;2024-03-02T15:11:14;12.80;99.90
11569;DHT22;5840;46.894;15.542;2024-03-02T15:13:42;13.00;99.90
11569;DHT22;5840;46.894;15.542;2024-03-02T15:16:09;13.30;99.90
11569;DHT22;5840;46.894;15.542;2024-03-02T15:18:36;13.40;99.90
11569;DHT22;5840;46.894;15.542;2024-03-02T15:28:30;13.40;99.90
11569;DHT22;5840;46.894;15.542;2024-03-02T15:30:56;13.10;99.90
11569;DHT22;5840;46.894;15.542;2024-03-02T15:33:23;12.90;99.90
11569;DHT22;5840;46.894;15.542;2024-03-02T15:35:51;12.80;99.90
11569;DHT22;5840;46.894;15.542;2024-03-02T15:38:17;12.80;99.90
11569;DHT22;5840;46.894;15.542;2024-03-02T15:40:43;12.80;99.90
11569;DHT22;5840;46.894;15.542;2024-03-02T15:43:10;12.90;99.90
11569;DHT22;5840;46.894;15.542;2024-03-02T15:45:36;12.90;99.90
11569;DHT22;5840;46.894;15.542;2024-03-02T15:55:11;12.50;99.90
11569;DHT22;5840;46.894;15.542;2024-03-02T15:57:37;12.30;99.90
11569;DHT22;5840;46.894;15.542;2024-03-02T16:00:04;12.20;99.90
11569;DHT22;5840;46.894;15.542;2024-03-02T16:02:31;12.20;99.90
11569;DHT22;5840;46.894;15.542;2024-03-02T16:04:57;12.10;99.90
11569;DHT22;5840;46.894;15.542;2024-03-02T16:07:23;12.00;99.90
11569;DHT22;5840;46.894;15.542;2024-03-02T16:09:49;11.90;99.90
11569;DHT22;5840;46.894;15.542;2024-03-02T16:12:16;11.80;99.90
11569;DHT22;5840;46.894;15.542;2024-03-02T16:19:41;11.80;99.90
11569;DHT22;5840;46.894;15.542;2024-03-02T16:22:07;11.60;99.90
11569;DHT22;5840;46.894;15.542;2024-03-02T16:24:36;11.60;99.90
11569;DHT22;5840;46.894;15.542;2024-03-02T16:27:03;11.50;99.90
11569;DHT22;5840;46.894;15.542;2024-03-02T16:29:29;11.50;99.90
11569;DHT22;5840;46.894;15.542;2024-03-02T16:31:55;11.50;99.90
11569;DHT22;5840;46.894;15.542;2024-03-02T16:34:21;11.40;99.90
11569;DHT22;5840;46.894;15.542;2024-03-02T16:36:48;11.40;99.90
11569;DHT22;5840;46.894;15.542;2024-03-02T16:46:43;11.20;99.90
11569;DHT22;5840;46.894;15.542;2024-03-02T16:49:10;11.10;99.90
11569;DHT22;5840;46.894;15.542;2024-03-02T16:51:40;11.10;99.90
11569;DHT22;5840;46.894;15.542;2024-03-02T16:54:06;11.00;99.90
11569;DHT22;5840;46.894;15.542;2024-03-02T16:56:38;11.00;99.90
11569;DHT22;5840;46.894;15.542;2024-03-02T16:59:04;11.00;99.90
11569;DHT22;5840;46.894;15.542;2024-03-02T17:01:30;11.00;99.90
11569;DHT22;5840;46.894;15.542;2024-03-02T17:03:57;11.00;99.90
11569;DHT22;5840;46.894;15.542;2024-03-02T17:11:22;10.90;99.90
11569;DHT22;5840;46.894;15.542;2024-03-02T17:13:48;10.90;99.90
11569;DHT22;5840;46.894;15.542;2024-03-02T17:16:17;10.90;99.90
11569;DHT22;5840;46.894;15.542;2024-03-02T17:18:44;10.90;99.90
11569;DHT22;5840;46.894;15.542;2024-03-02T17:21:10;10.90;99.90
11569;DHT22;5840;46.894;15.542;2024-03-02T17:23:36;10.80;99.90
11569;DHT22;5840;46.894;15.542;2024-03-02T17:26:02;10.80;99.90
11569;DHT22;5840;46.894;15.542;2024-03-02T17:28:29;10.80;99.90
11569;DHT22;5840;46.894;15.542;2024-03-02T17:38:24;10.70;99.90
11569;DHT22;5840;46.894;15.542;2024-03-02T17:40:50;10.60;99.90
11569;DHT22;5840;46.894;15.542;2024-03-02T17:43:16;10.50;99.90
11569;DHT22;5840;46.894;15.542;2024-03-02T17:45:42;10.50;99.90
11569;DHT22;5840;46.894;15.542;2024-03-02T17:48:09;10.50;99.90
11569;DHT22;5840;46.894;15.542;2024-03-02T17:53:03;10.40;99.90
11569;DHT22;5840;46.894;15.542;2024-03-02T17:55:30;10.40;99.90
11569;DHT22;5840;46.894;15.542;2024-03-02T18:04:58;10.30;99.90
11569;DHT22;5840;46.894;15.542;2024-03-02T18:07:24;10.20;99.90
11569;DHT22;5840;46.894;15.542;2024-03-02T18:09:50;10.10;99.90
11569;DHT22;5840;46.894;15.542;2024-03-02T18:12:16;10.10;99.90
11569;DHT22;5840;46.894;15.542;2024-03-02T18:14:42;10.10;99.90
11569;DHT22;5840;46.894;15.542;2024-03-02T18:17:08;10.10;99.90
11569;DHT22;5840;46.894;15.542;2024-03-02T18:19:35;10.10;99.90
11569;DHT22;5840;46.894;15.542;2024-03-02T18:22:02;10.00;99.90
11569;DHT22;5840;46.894;15.542;2024-03-02T18:31:56;9.90;99.90
11569;DHT22;5840;46.894;15.542;2024-03-02T18:34:23;9.80;99.90
11569;DHT22;5840;46.894;15.542;2024-03-02T18:36:49;9.80;99.90
11569;DHT22;5840;46.894;15.542;2024-03-02T18:39:15;9.80;99.90
11569;DHT22;5840;46.894;15.542;2024-03-02T18:41:41;9.70;99.90
11569;DHT22;5840;46.894;15.542;2024-03-02T18:44:08;9.70;99.90
11569;DHT22;5840;46.894;15.542;2024-03-02T18:46:34;9.60;99.90
11569;DHT22;5840;46.894;15.542;2024-03-02T18:49:01;9.60;99.90
11569;DHT22;5840;46.894;15.542;2024-03-02T18:56:30;9.60;99.90
11569;DHT22;5840;46.894;15.542;2024-03-02T18:58:56;9.50;99.90
11569;DHT22;5840;46.894;15.542;2024-03-02T19:01:22;9.50;99.90
11569;DHT22;5840;46.894;15.542;2024-03-02T19:03:49;9.40;99.90
11569;DHT22;5840;46.894;15.542;2024-03-02T19:06:15;9.40;99.90
11569;DHT22;5840;46.894;15.542;2024-03-02T19:08:41;9.40;99.90
11569;DHT22;5840;46.894;15.542;2024-03-02T19:11:12;9.40;99.90
11569;DHT22;5840;46.894;15.542;2024-03-02T19:13:39;9.40;99.90
11569;DHT22;5840;46.894;15.542;2024-03-02T19:21:10;9.30;99.90
11569;DHT22;5840;46.894;15.542;2024-03-02T19:23:36;9.30;99.90
11569;DHT22;5840;46.894;15.542;2024-03-02T19:26:02;9.20;99.90
11569;DHT22;5840;46.894;15.542;2024-03-02T19:28:29;9.20;99.90
11569;DHT22;5840;46.894;15.542;2024-03-02T19:30:55;9.20;99.90
11569;DHT22;5840;46.894;15.542;2024-03-02T19:33:21;9.10;99.90
11569;DHT22;5840;46.894;15.542;2024-03-02T19:35:47;9.10;99.90
11569;DHT22;5840;46.894;15.542;2024-03-02T19:38:14;9.10;99.90
11569;DHT22;5840;46.894;15.542;2024-03-02T19:48:09;9.00;99.90
11569;DHT22;5840;46.894;15.542;2024-03-02T19:50:35;9.00;99.90
11569;DHT22;5840;46.894;15.542;2024-03-02T19:53:02;8.90;99.90
11569;DHT22;5840;46.894;15.542;2024-03-02T19:55:28;8.90;99.90
11569;DHT22;5840;46.894;15.542;2024-03-02T19:57:56;8.90;99.90
11569;DHT22;5840;46.894;15.542;2024-03-02T20:00:22;8.90;99.90
11569;DHT22;5840;46.894;15.542;2024-03-02T20:02:49;8.90;99.90
11569;DHT22;5840;46.894;15.542;2024-03-02T20:05:16;8.80;99.90
11569;DHT22;5840;46.894;15.542;2024-03-02T20:12:41;8.80;99.90
11569;DHT22;5840;46.894;15.542;2024-03-02T20:15:09;8.80;99.90
11569;DHT22;5840;46.894;15.542;2024-03-02T20:17:36;8.80;99.90
11569;DHT22;5840;46.894;15.542;2024-03-02T20:20:04;8.80;99.90
11569;DHT22;5840;46.894;15.542;2024-03-02T20:22:30;8.90;99.90
11569;DHT22;5840;46.894;15.542;2024-03-02T20:24:56;8.90;99.90
11569;DHT22;5840;46.894;15.542;2024-03-02T20:27:23;8.90;99.90
11569;DHT22;5840;46.894;15.542;2024-03-02T20:29:50;8.90;99.90
11569;DHT22;5840;46.894;15.542;2024-03-02T20:37:18;8.90;99.90